Cap Theodora — SVAM5 — position and weather

sailwx.info

Track history (hours):
 
Tides and Currents Weather Stations Pressure Air Temp Water Temp Dewpoint Dewpoint Depression Visibility Wind Speed Wind Dir Waves Ship Positions

Cap Theodora

Last reported at 2016-Jun-30 20:33 UTC. Time now 2016-Jun-30 21:27 UTC.
Position N 22°05' E 114°08'.

Length 274 m; draft 11 m.

Type: Tanker. MMSI: 240840000.

Date/timePositionNaut miles runAvg speedWind from/ knotsBaromVisibWave heightAir tempDewpointWater temp
2016-Jun-30 20:33N 22°05' E 114°08'0 0.4
2016-Jun-30 19:33N 22°05' E 114°09'1 0.5
2016-Jun-30 18:25N 22°05' E 114°09'1 0.7
2016-Jun-30 17:33N 22°05' E 114°09'0 0.1
2016-Jun-30 15:07N 22°05' E 114°09'0 0.2
2016-Jun-30 13:33N 22°05' E 114°09'1 0.5
2016-Jun-30 12:13N 22°06' E 114°09'8 1.4
2016-Jun-30 06:09N 22°08' E 114°18'4 6.1
2016-Jun-30 05:33N 22°08' E 114°22'6 5.9
2016-Jun-30 04:30N 22°11' E 114°28'1 0.7
2016-Jun-30 03:33N 22°11' E 114°28'4 4.1
2016-Jun-30 02:32N 22°09' E 114°24'3 3.4
2016-Jun-30 01:33N 22°07' E 114°21'8 7.7
2016-Jun-30 00:33N 22°00' E 114°24'20611.4
2016-Jun-29 06:32N 21°01' E 110°52'9 9.2
2016-Jun-29 05:33N 21°01' E 110°43'1010.4
2016-Jun-29 04:33N 21°05' E 110°33'9 8.5
2016-Jun-29 03:33N 21°09' E 110°25'0 0.1
2016-Jun-29 02:28N 21°09' E 110°24'0 0.0
2016-Jun-29 01:28N 21°09' E 110°24'0 0.0
2016-Jun-29 00:04N 21°09' E 110°24'0 0.0
2016-Jun-28 23:31N 21°09' E 110°24'0 0.0
2016-Jun-28 21:22N 21°09' E 110°24'0 0.0
2016-Jun-28 20:25N 21°09' E 110°24'0 0.0
2016-Jun-28 19:31N 21°09' E 110°24'0 0.0
2016-Jun-28 18:13N 21°09' E 110°24'0 0.0
2016-Jun-28 17:31N 21°09' E 110°24'0 0.0
2016-Jun-28 16:28N 21°09' E 110°24'0 0.0
2016-Jun-28 11:04N 21°09' E 110°24'0 0.0
2016-Jun-28 10:31N 21°09' E 110°24'0 0.0
2016-Jun-28 09:31N 21°09' E 110°24'0 0.0
2016-Jun-28 08:28N 21°09' E 110°24'0 0.0
2016-Jun-28 07:13N 21°09' E 110°24'0 0.0
2016-Jun-28 06:28N 21°09' E 110°24'0 0.0
2016-Jun-28 04:16N 21°09' E 110°24'0 0.0
2016-Jun-28 03:31N 21°09' E 110°24'0 0.0
2016-Jun-28 02:22N 21°09' E 110°24'0 0.0
2016-Jun-28 01:16N 21°09' E 110°24'0 0.0
2016-Jun-28 00:22N 21°09' E 110°24'0 0.0
2016-Jun-27 23:28N 21°09' E 110°24'0 0.0
2016-Jun-27 22:28N 21°09' E 110°24'0 0.0
2016-Jun-27 21:22N 21°09' E 110°24'0 0.0
2016-Jun-27 20:25N 21°09' E 110°24'0 0.0
2016-Jun-27 19:22N 21°09' E 110°24'0 0.0
2016-Jun-27 16:10N 21°09' E 110°24'0 0.0
2016-Jun-27 13:29N 21°09' E 110°24'1 1.5
2016-Jun-27 12:33N 21°08' E 110°25'9 8.6
2016-Jun-27 11:34N 21°04' E 110°34'1211.6
2016-Jun-27 10:32N 21°02' E 110°46'4 3.9
2016-Jun-27 09:33N 20°59' E 110°49'1 0.5
2016-Jun-27 08:14N 20°59' E 110°48'1 1.8
2016-Jun-27 07:33N 20°59' E 110°49'  
Track history (hours):
 
Tides and Currents Weather Stations Pressure Air Temp Water Temp Dewpoint Dewpoint Depression Visibility Wind Speed Wind Dir Waves Ship Positions

Cap Theodora

Last reported at 2016-Jun-30 20:33 UTC. Time now 2016-Jun-30 21:27 UTC.
Position N 22°05' E 114°08'.

Length 274 m; draft 11 m.

Type: Tanker. MMSI: 240840000.

Date/timePositionNaut miles runAvg speedWind from/ knotsBaromVisibWave heightAir tempDewpointWater temp
2016-Jun-30 20:33N 22°05' E 114°08'0 0.4
2016-Jun-30 19:33N 22°05' E 114°09'1 0.5
2016-Jun-30 18:25N 22°05' E 114°09'1 0.7
2016-Jun-30 17:33N 22°05' E 114°09'0 0.1
2016-Jun-30 15:07N 22°05' E 114°09'0 0.2
2016-Jun-30 13:33N 22°05' E 114°09'1 0.5
2016-Jun-30 12:13N 22°06' E 114°09'8 1.4
2016-Jun-30 06:09N 22°08' E 114°18'4 6.1
2016-Jun-30 05:33N 22°08' E 114°22'6 5.9
2016-Jun-30 04:30N 22°11' E 114°28'1 0.7
2016-Jun-30 03:33N 22°11' E 114°28'4 4.1
2016-Jun-30 02:32N 22°09' E 114°24'3 3.4
2016-Jun-30 01:33N 22°07' E 114°21'8 7.7
2016-Jun-30 00:33N 22°00' E 114°24'20611.4
2016-Jun-29 06:32N 21°01' E 110°52'9 9.2
2016-Jun-29 05:33N 21°01' E 110°43'1010.4
2016-Jun-29 04:33N 21°05' E 110°33'9 8.5
2016-Jun-29 03:33N 21°09' E 110°25'0 0.1
2016-Jun-29 02:28N 21°09' E 110°24'0 0.0
2016-Jun-29 01:28N 21°09' E 110°24'0 0.0
2016-Jun-29 00:04N 21°09' E 110°24'0 0.0
2016-Jun-28 23:31N 21°09' E 110°24'0 0.0
2016-Jun-28 21:22N 21°09' E 110°24'0 0.0
2016-Jun-28 20:25N 21°09' E 110°24'0 0.0
2016-Jun-28 19:31N 21°09' E 110°24'0 0.0
2016-Jun-28 18:13N 21°09' E 110°24'0 0.0
2016-Jun-28 17:31N 21°09' E 110°24'0 0.0
2016-Jun-28 16:28N 21°09' E 110°24'0 0.0
2016-Jun-28 11:04N 21°09' E 110°24'0 0.0
2016-Jun-28 10:31N 21°09' E 110°24'0 0.0
2016-Jun-28 09:31N 21°09' E 110°24'0 0.0
2016-Jun-28 08:28N 21°09' E 110°24'0 0.0
2016-Jun-28 07:13N 21°09' E 110°24'0 0.0
2016-Jun-28 06:28N 21°09' E 110°24'0 0.0
2016-Jun-28 04:16N 21°09' E 110°24'0 0.0
2016-Jun-28 03:31N 21°09' E 110°24'0 0.0
2016-Jun-28 02:22N 21°09' E 110°24'0 0.0
2016-Jun-28 01:16N 21°09' E 110°24'0 0.0
2016-Jun-28 00:22N 21°09' E 110°24'0 0.0
2016-Jun-27 23:28N 21°09' E 110°24'0 0.0
2016-Jun-27 22:28N 21°09' E 110°24'0 0.0
2016-Jun-27 21:22N 21°09' E 110°24'0 0.0
2016-Jun-27 20:25N 21°09' E 110°24'0 0.0
2016-Jun-27 19:22N 21°09' E 110°24'0 0.0
2016-Jun-27 16:10N 21°09' E 110°24'0 0.0
2016-Jun-27 13:29N 21°09' E 110°24'1 1.5
2016-Jun-27 12:33N 21°08' E 110°25'9 8.6
2016-Jun-27 11:34N 21°04' E 110°34'1211.6
2016-Jun-27 10:32N 21°02' E 110°46'4 3.9
2016-Jun-27 09:33N 20°59' E 110°49'1 0.5
2016-Jun-27 08:14N 20°59' E 110°48'1 1.8
2016-Jun-27 07:33N 20°59' E 110°49'  

Dump ship's entire track history